Time;durP1;ratioP1;P1;durP2;ratioP2;P2;SDS_P1;SDS_P2;PMS_P1;PMS_P2;Temp;Humidity;BMP_temperature;BMP_pressure;BME280_temperature;BME280_humidity;BME280_pressure;Samples;Min_cycle;Max_cycle;Signal;HPM_P1;HPM_P2
2023/12/02 00:02:25;;;;;;;33.55;16.65;;;;;;;;;;5099484;28;20519;-68
2023/12/02 00:04:51;;;;;;;35.80;16.17;;;;;;;;;;5099762;28;20047;-68
2023/12/02 00:07:17;;;;;;;38.22;18.00;;;;;;;;;;5112161;28;20099;-68
2023/12/02 00:09:43;;;;;;;37.78;17.95;;;;;;;;;;5111063;28;20047;-68
2023/12/02 00:12:09;;;;;;;34.60;15.25;;;;;;;;;;5096174;28;20063;-68
2023/12/02 00:14:35;;;;;;;34.85;16.67;;;;;;;;;;5097737;28;20126;-69
2023/12/02 00:17:01;;;;;;;33.95;15.65;;;;;;;;;;5111466;28;20043;-68
2023/12/02 00:19:27;;;;;;;36.25;16.98;;;;;;;;;;5105564;28;20043;-68
2023/12/02 00:21:53;;;;;;;35.38;16.80;;;;;;;;;;5108311;28;20139;-69
2023/12/02 00:24:19;;;;;;;32.60;16.15;;;;;;;;;;5105337;28;20628;-69
2023/12/02 00:26:45;;;;;;;37.78;17.70;;;;;;;;;;5099217;28;20047;-69
2023/12/02 00:29:11;;;;;;;33.67;15.63;;;;;;;;;;5106411;28;20094;-69
2023/12/02 00:31:37;;;;;;;36.65;17.02;;;;;;;;;;5103851;28;20503;-68
2023/12/02 00:34:03;;;;;;;31.85;15.40;;;;;;;;;;5095750;27;20122;-69
2023/12/02 00:36:29;;;;;;;35.17;16.25;;;;;;;;;;5090114;28;20097;-69
2023/12/02 00:38:55;;;;;;;36.65;16.63;;;;;;;;;;5101630;28;20036;-69
2023/12/02 00:41:21;;;;;;;38.42;17.58;;;;;;;;;;5095856;28;20043;-69
2023/12/02 00:43:47;;;;;;;31.30;15.10;;;;;;;;;;5103680;28;20036;-69
2023/12/02 00:46:13;;;;;;;30.13;15.15;;;;;;;;;;5111125;28;20500;-68
2023/12/02 00:48:39;;;;;;;35.22;16.13;;;;;;;;;;5112049;28;20039;-68
2023/12/02 00:51:05;;;;;;;31.83;14.75;;;;;;;;;;5097170;28;20380;-69
2023/12/02 00:53:31;;;;;;;34.97;15.85;;;;;;;;;;5107006;28;20039;-69
2023/12/02 00:55:57;;;;;;;35.70;15.60;;;;;;;;;;5107461;28;20062;-69
2023/12/02 00:58:23;;;;;;;33.55;15.70;;;;;;;;;;5111979;28;20084;-69
2023/12/02 01:00:49;;;;;;;36.20;16.73;;;;;;;;;;5094758;28;20501;-69
2023/12/02 01:03:15;;;;;;;36.08;16.48;;;;;;;;;;5112405;28;20043;-69
2023/12/02 01:05:41;;;;;;;36.63;16.23;;;;;;;;;;5107164;28;20054;-68
2023/12/02 01:08:07;;;;;;;36.83;16.60;;;;;;;;;;5102643;28;20047;-68
2023/12/02 01:10:33;;;;;;;33.22;15.18;;;;;;;;;;5103886;28;20130;-68
2023/12/02 01:12:59;;;;;;;32.85;15.48;;;;;;;;;;5095244;28;20369;-69
2023/12/02 01:15:25;;;;;;;33.85;15.98;;;;;;;;;;5106948;28;20054;-69
2023/12/02 01:17:51;;;;;;;33.97;15.68;;;;;;;;;;5100618;28;20042;-68
2023/12/02 01:20:17;;;;;;;32.95;16.48;;;;;;;;;;5107300;28;20031;-69
2023/12/02 01:22:43;;;;;;;32.33;15.02;;;;;;;;;;5102766;28;20055;-68
2023/12/02 01:25:09;;;;;;;36.22;16.95;;;;;;;;;;5087570;28;20053;-69
2023/12/02 01:27:35;;;;;;;35.58;16.73;;;;;;;;;;5095652;28;20540;-69
2023/12/02 01:30:01;;;;;;;34.38;15.85;;;;;;;;;;5100089;28;20044;-69
2023/12/02 01:32:27;;;;;;;32.83;16.52;;;;;;;;;;5096891;28;20043;-69
2023/12/02 01:34:53;;;;;;;34.40;15.63;;;;;;;;;;5108944;28;20570;-69
2023/12/02 01:37:19;;;;;;;35.30;16.92;;;;;;;;;;5106827;28;20062;-68
2023/12/02 01:39:45;;;;;;;34.67;17.13;;;;;;;;;;5107107;28;20040;-69
2023/12/02 01:42:11;;;;;;;33.40;16.40;;;;;;;;;;5102315;28;20694;-69
2023/12/02 01:44:37;;;;;;;36.55;17.83;;;;;;;;;;5110140;28;20073;-68
2023/12/02 01:47:04;;;;;;;35.35;17.85;;;;;;;;;;5106776;28;20031;-68
2023/12/02 01:49:31;;;;;;;38.65;16.40;;;;;;;;;;5110229;28;20032;-68
2023/12/02 01:51:57;;;;;;;37.53;16.55;;;;;;;;;;5096982;28;20048;-68
2023/12/02 01:54:23;;;;;;;37.08;17.23;;;;;;;;;;5098768;28;20050;-69
2023/12/02 01:56:49;;;;;;;35.38;16.80;;;;;;;;;;5105643;28;20052;-68
2023/12/02 01:59:15;;;;;;;35.97;17.30;;;;;;;;;;5111498;28;20032;-68
2023/12/02 02:01:41;;;;;;;35.70;17.23;;;;;;;;;;5101838;28;20044;-67
2023/12/02 02:04:07;;;;;;;38.60;19.17;;;;;;;;;;5086821;28;20040;-69
2023/12/02 02:06:34;;;;;;;40.75;19.33;;;;;;;;;;5100882;28;20126;-69
2023/12/02 02:09:00;;;;;;;39.85;19.33;;;;;;;;;;5103025;28;20043;-69
2023/12/02 02:11:26;;;;;;;38.45;18.73;;;;;;;;;;5093040;28;20039;-68
2023/12/02 02:13:52;;;;;;;40.38;18.63;;;;;;;;;;5100296;28;20046;-69
2023/12/02 02:16:18;;;;;;;36.75;17.80;;;;;;;;;;5103918;28;20050;-69
2023/12/02 02:18:44;;;;;;;37.22;18.48;;;;;;;;;;5110785;28;20043;-69
2023/12/02 02:21:10;;;;;;;37.50;18.48;;;;;;;;;;5098836;28;20565;-69
2023/12/02 02:23:36;;;;;;;38.03;18.83;;;;;;;;;;5095777;28;20048;-69
2023/12/02 02:26:02;;;;;;;37.05;17.83;;;;;;;;;;5090298;28;20040;-69
2023/12/02 02:28:28;;;;;;;41.20;18.95;;;;;;;;;;5092730;28;20050;-68
2023/12/02 02:30:55;;;;;;;38.17;18.50;;;;;;;;;;5104249;28;20115;-68
2023/12/02 02:33:21;;;;;;;35.33;18.27;;;;;;;;;;5100421;28;20399;-68
2023/12/02 02:35:47;;;;;;;39.10;18.45;;;;;;;;;;5112865;28;20047;-69
2023/12/02 02:38:14;;;;;;;37.58;17.92;;;;;;;;;;5105279;28;20040;-69
2023/12/02 02:40:40;;;;;;;41.50;19.33;;;;;;;;;;5104455;28;20044;-68
2023/12/02 02:43:06;;;;;;;40.20;19.15;;;;;;;;;;5079088;28;20044;-68
2023/12/02 02:45:32;;;;;;;38.70;19.25;;;;;;;;;;5085297;28;20040;-69
2023/12/02 02:47:58;;;;;;;39.08;19.20;;;;;;;;;;5106556;28;20036;-69
2023/12/02 02:50:25;;;;;;;40.08;18.88;;;;;;;;;;5105901;28;20051;-69
2023/12/02 02:52:51;;;;;;;42.80;20.52;;;;;;;;;;5100846;28;20036;-69
2023/12/02 02:55:17;;;;;;;45.28;19.95;;;;;;;;;;5105573;28;20113;-69
2023/12/02 02:57:43;;;;;;;43.53;20.23;;;;;;;;;;5097257;28;20110;-69
2023/12/02 03:00:09;;;;;;;39.42;19.08;;;;;;;;;;5097654;28;20574;-68
2023/12/02 03:02:36;;;;;;;44.35;20.60;;;;;;;;;;5098493;28;20111;-69
2023/12/02 03:05:02;;;;;;;39.10;18.60;;;;;;;;;;5108178;28;20043;-69
2023/12/02 03:07:28;;;;;;;41.42;20.30;;;;;;;;;;5107925;28;20123;-68
2023/12/02 03:09:55;;;;;;;43.30;20.05;;;;;;;;;;5102592;28;20039;-69
2023/12/02 03:12:21;;;;;;;39.53;19.48;;;;;;;;;;5101357;28;20428;-69
2023/12/02 03:14:47;;;;;;;42.13;18.95;;;;;;;;;;5094218;28;20036;-68
2023/12/02 03:17:13;;;;;;;44.72;20.13;;;;;;;;;;5103108;28;20046;-69
2023/12/02 03:19:39;;;;;;;42.40;19.73;;;;;;;;;;5089614;28;20044;-69
2023/12/02 03:22:05;;;;;;;40.33;18.65;;;;;;;;;;5094394;27;20407;-69
2023/12/02 03:24:31;;;;;;;42.25;20.95;;;;;;;;;;5088867;28;20093;-68
2023/12/02 03:26:57;;;;;;;46.35;21.17;;;;;;;;;;5100908;28;20040;-69
2023/12/02 03:29:23;;;;;;;40.25;20.90;;;;;;;;;;5096410;28;20046;-69
2023/12/02 03:31:49;;;;;;;41.42;19.75;;;;;;;;;;5094630;28;20036;-68
2023/12/02 03:34:15;;;;;;;42.05;19.98;;;;;;;;;;5106947;28;20071;-68
2023/12/02 03:36:41;;;;;;;43.97;21.15;;;;;;;;;;5111635;28;20067;-68
2023/12/02 03:39:07;;;;;;;40.08;20.08;;;;;;;;;;5113201;28;20036;-69
2023/12/02 03:41:33;;;;;;;40.53;20.75;;;;;;;;;;5095863;28;20106;-68
2023/12/02 03:43:59;;;;;;;42.60;20.55;;;;;;;;;;5106511;28;20477;-69
2023/12/02 03:46:28;;;;;;;37.58;19.58;;;;;;;;;;5104987;28;20044;-69
2023/12/02 03:48:55;;;;;;;39.90;20.00;;;;;;;;;;5108567;28;20100;-69
2023/12/02 03:51:21;;;;;;;45.75;22.23;;;;;;;;;;5104764;28;20093;-69
2023/12/02 03:53:47;;;;;;;42.17;20.08;;;;;;;;;;5099200;28;20369;-69
2023/12/02 03:56:13;;;;;;;41.75;19.40;;;;;;;;;;5111953;28;20081;-69
2023/12/02 03:58:40;;;;;;;41.35;19.63;;;;;;;;;;5112265;28;20039;-69
2023/12/02 04:01:06;;;;;;;40.50;20.13;;;;;;;;;;5104069;28;20044;-68
2023/12/02 04:03:33;;;;;;;46.30;21.67;;;;;;;;;;5098629;28;20404;-68
2023/12/02 04:05:59;;;;;;;39.30;19.23;;;;;;;;;;5111474;28;20039;-69
2023/12/02 04:08:25;;;;;;;40.47;19.85;;;;;;;;;;5109489;28;20388;-68
2023/12/02 04:10:51;;;;;;;37.80;19.48;;;;;;;;;;5108565;28;20042;-69
2023/12/02 04:13:17;;;;;;;40.03;19.27;;;;;;;;;;5104098;28;20043;-69
2023/12/02 04:15:46;;;;;;;41.13;19.48;;;;;;;;;;5110407;28;20047;-69
2023/12/02 04:18:12;;;;;;;39.85;20.17;;;;;;;;;;5111385;28;20054;-69
2023/12/02 04:20:38;;;;;;;40.78;20.27;;;;;;;;;;5100973;28;20039;-68
2023/12/02 04:23:04;;;;;;;42.60;20.45;;;;;;;;;;5099911;28;20563;-68
2023/12/02 04:25:30;;;;;;;41.50;20.15;;;;;;;;;;5111681;28;20119;-69
2023/12/02 04:27:56;;;;;;;41.03;19.75;;;;;;;;;;5107354;28;20051;-69
2023/12/02 04:30:22;;;;;;;47.28;21.67;;;;;;;;;;5112304;28;20239;-69
2023/12/02 04:32:48;;;;;;;40.22;19.63;;;;;;;;;;5104601;28;20047;-69
2023/12/02 04:35:14;;;;;;;41.10;20.90;;;;;;;;;;5111120;28;20552;-69
2023/12/02 04:37:41;;;;;;;43.72;21.23;;;;;;;;;;5112322;28;20058;-69
2023/12/02 04:40:10;;;;;;;39.30;20.35;;;;;;;;;;5104057;28;20040;-69
2023/12/02 04:42:37;;;;;;;44.13;20.75;;;;;;;;;;5103749;28;20054;-69
2023/12/02 04:45:03;;;;;;;45.67;20.33;;;;;;;;;;5100708;28;20044;-68
2023/12/02 04:47:29;;;;;;;44.67;21.45;;;;;;;;;;5107809;28;20036;-69
2023/12/02 04:49:55;;;;;;;42.53;21.45;;;;;;;;;;5106731;28;20065;-68
2023/12/02 04:52:21;;;;;;;44.05;21.08;;;;;;;;;;5102161;28;20118;-68
2023/12/02 04:54:47;;;;;;;45.20;20.98;;;;;;;;;;5093285;28;20547;-68
2023/12/02 04:57:13;;;;;;;39.33;19.83;;;;;;;;;;5110668;28;20092;-68
2023/12/02 04:59:39;;;;;;;39.85;18.70;;;;;;;;;;5108313;28;20096;-69
2023/12/02 05:02:05;;;;;;;39.78;19.80;;;;;;;;;;5091137;28;20035;-69
2023/12/02 05:04:31;;;;;;;44.92;21.75;;;;;;;;;;5096602;28;20046;-68
2023/12/02 05:06:57;;;;;;;39.53;20.15;;;;;;;;;;5107183;28;20111;-69
2023/12/02 05:09:23;;;;;;;42.95;20.73;;;;;;;;;;5105597;28;20119;-69
2023/12/02 05:11:49;;;;;;;43.03;20.10;;;;;;;;;;5092337;28;20481;-69
2023/12/02 05:14:15;;;;;;;41.80;21.00;;;;;;;;;;5106529;28;20035;-69
2023/12/02 05:16:42;;;;;;;41.60;20.48;;;;;;;;;;5112181;28;20040;-69
2023/12/02 05:19:08;;;;;;;41.75;20.00;;;;;;;;;;5103852;28;20106;-68
2023/12/02 05:21:36;;;;;;;43.58;20.60;;;;;;;;;;5108326;28;20445;-68
2023/12/02 05:24:02;;;;;;;41.15;19.60;;;;;;;;;;5101359;28;20043;-68
2023/12/02 05:26:28;;;;;;;43.03;20.85;;;;;;;;;;5094980;28;20135;-68
2023/12/02 05:28:54;;;;;;;39.40;19.50;;;;;;;;;;5101673;28;20511;-69
2023/12/02 05:31:21;;;;;;;43.47;20.67;;;;;;;;;;5104527;28;20044;-69
2023/12/02 05:33:47;;;;;;;42.70;20.33;;;;;;;;;;5107945;28;20074;-69
2023/12/02 05:36:13;;;;;;;43.35;20.63;;;;;;;;;;5111846;28;20043;-68
2023/12/02 05:38:39;;;;;;;44.75;21.30;;;;;;;;;;5107051;28;20071;-68
2023/12/02 05:41:06;;;;;;;46.38;20.90;;;;;;;;;;5103888;28;20071;-68
2023/12/02 05:43:32;;;;;;;48.17;22.52;;;;;;;;;;5109980;28;20047;-69
2023/12/02 05:45:58;;;;;;;50.63;21.55;;;;;;;;;;5092740;28;20112;-69
2023/12/02 05:48:24;;;;;;;45.13;21.58;;;;;;;;;;5106582;28;20043;-69
2023/12/02 05:50:51;;;;;;;44.08;21.23;;;;;;;;;;5104729;28;20044;-69
2023/12/02 05:53:17;;;;;;;43.13;20.60;;;;;;;;;;5109184;28;20032;-69
2023/12/02 05:55:43;;;;;;;44.97;20.58;;;;;;;;;;5106301;28;20047;-70
2023/12/02 05:58:09;;;;;;;46.35;21.58;;;;;;;;;;5105822;28;20499;-69
2023/12/02 06:00:35;;;;;;;47.92;21.70;;;;;;;;;;5100243;28;20043;-69
2023/12/02 06:03:01;;;;;;;44.38;21.45;;;;;;;;;;5102665;28;20112;-68
2023/12/02 06:05:28;;;;;;;46.30;21.17;;;;;;;;;;5109514;28;20384;-68
2023/12/02 06:07:54;;;;;;;49.80;21.23;;;;;;;;;;5109973;28;20040;-68
2023/12/02 06:10:20;;;;;;;45.83;21.25;;;;;;;;;;5107701;28;20044;-68
2023/12/02 06:12:46;;;;;;;43.22;21.40;;;;;;;;;;5102471;28;20569;-69
2023/12/02 06:15:12;;;;;;;45.63;20.83;;;;;;;;;;5102681;28;20052;-68
2023/12/02 06:17:38;;;;;;;47.35;21.33;;;;;;;;;;5121099;22;20074;-68
2023/12/02 06:20:06;;;;;;;43.47;19.80;;;;;;;;;;5074746;28;20131;-69
2023/12/02 06:22:33;;;;;;;46.65;21.13;;;;;;;;;;5082698;28;20141;-68
2023/12/02 06:24:59;;;;;;;46.25;21.38;;;;;;;;;;5075764;28;20049;-68
2023/12/02 06:27:25;;;;;;;47.97;21.48;;;;;;;;;;5074149;28;20048;-69
2023/12/02 06:29:51;;;;;;;43.13;20.52;;;;;;;;;;5063609;28;20036;-69
2023/12/02 06:32:16;;;;;;;45.83;20.50;;;;;;;;;;5074856;28;20046;-69
2023/12/02 06:34:42;;;;;;;45.90;20.40;;;;;;;;;;5069166;28;20064;-69
2023/12/02 06:37:08;;;;;;;48.13;21.23;;;;;;;;;;5061916;28;20044;-69
2023/12/02 06:39:34;;;;;;;46.47;21.63;;;;;;;;;;5035634;28;20041;-69
2023/12/02 06:42:00;;;;;;;48.85;21.73;;;;;;;;;;5060960;28;20032;-69
2023/12/02 06:44:26;;;;;;;41.88;19.85;;;;;;;;;;5060055;28;20106;-69
2023/12/02 06:46:52;;;;;;;41.28;20.00;;;;;;;;;;5054413;28;20455;-69
2023/12/02 06:49:18;;;;;;;47.45;20.83;;;;;;;;;;5065048;28;20036;-69
2023/12/02 06:51:44;;;;;;;45.97;21.23;;;;;;;;;;5056758;28;20041;-69
2023/12/02 06:54:10;;;;;;;45.03;20.55;;;;;;;;;;5066116;28;20036;-69
2023/12/02 06:56:36;;;;;;;47.65;21.58;;;;;;;;;;5056451;28;20045;-69
2023/12/02 06:59:03;;;;;;;46.78;22.10;;;;;;;;;;5060727;28;20029;-69
2023/12/02 07:01:30;;;;;;;45.80;20.20;;;;;;;;;;5060256;28;20105;-69
2023/12/02 07:03:57;;;;;;;45.63;21.05;;;;;;;;;;5071972;28;20098;-69
2023/12/02 07:06:23;;;;;;;47.40;21.27;;;;;;;;;;5059113;28;20396;-69
2023/12/02 07:08:50;;;;;;;44.55;21.08;;;;;;;;;;5053806;28;20554;-69
2023/12/02 07:11:16;;;;;;;45.47;20.70;;;;;;;;;;5059546;28;20076;-69
2023/12/02 07:13:42;;;;;;;45.15;21.30;;;;;;;;;;5053399;28;20072;-69
2023/12/02 07:16:08;;;;;;;46.10;21.42;;;;;;;;;;5056673;28;20478;-68
2023/12/02 07:18:34;;;;;;;42.92;19.05;;;;;;;;;;5049457;28;20127;-69
2023/12/02 07:21:00;;;;;;;50.38;21.50;;;;;;;;;;5052346;28;20075;-69
2023/12/02 07:23:28;;;;;;;45.22;20.67;;;;;;;;;;5045612;28;20560;-69
2023/12/02 07:25:55;;;;;;;44.63;20.38;;;;;;;;;;5041439;28;20048;-69
2023/12/02 07:28:21;;;;;;;51.90;22.42;;;;;;;;;;5053294;28;20490;-69
2023/12/02 07:30:50;;;;;;;49.50;21.90;;;;;;;;;;5063955;28;20159;-69
2023/12/02 07:33:16;;;;;;;47.97;21.75;;;;;;;;;;5061515;28;20517;-69
2023/12/02 07:35:42;;;;;;;46.17;21.23;;;;;;;;;;5047542;28;20384;-69
2023/12/02 07:38:08;;;;;;;46.55;21.05;;;;;;;;;;5065908;28;20044;-69
2023/12/02 07:40:35;;;;;;;52.10;22.50;;;;;;;;;;5042829;28;20048;-69
2023/12/02 07:43:01;;;;;;;44.55;21.30;;;;;;;;;;5055228;28;20098;-69
2023/12/02 07:45:27;;;;;;;51.42;22.85;;;;;;;;;;5061010;28;20047;-69
2023/12/02 07:47:53;;;;;;;48.60;21.67;;;;;;;;;;5068902;28;20065;-69
2023/12/02 07:50:19;;;;;;;47.20;21.15;;;;;;;;;;5057835;28;20403;-69
2023/12/02 07:52:45;;;;;;;45.00;20.05;;;;;;;;;;5064631;28;20040;-69
2023/12/02 07:55:12;;;;;;;49.53;21.73;;;;;;;;;;5067932;28;20055;-69
2023/12/02 07:57:38;;;;;;;47.92;21.13;;;;;;;;;;5062418;28;20379;-69
2023/12/02 08:00:04;;;;;;;43.55;19.15;;;;;;;;;;5036610;28;20033;-69
2023/12/02 08:02:30;;;;;;;44.90;21.02;;;;;;;;;;5054511;28;20048;-69
2023/12/02 08:04:57;;;;;;;42.67;21.10;;;;;;;;;;5060764;28;20070;-69
2023/12/02 08:07:23;;;;;;;42.92;19.88;;;;;;;;;;5062073;28;20040;-69
2023/12/02 08:09:49;;;;;;;48.75;21.45;;;;;;;;;;5057738;28;20029;-69
2023/12/02 08:12:15;;;;;;;46.55;22.27;;;;;;;;;;5064615;28;20048;-69
2023/12/02 08:14:41;;;;;;;46.20;21.80;;;;;;;;;;5066424;28;20049;-69
2023/12/02 08:17:10;;;;;;;45.42;21.10;;;;;;;;;;5069187;28;20041;-69
2023/12/02 08:19:36;;;;;;;48.40;21.20;;;;;;;;;;5056675;28;20032;-69
2023/12/02 08:22:03;;;;;;;49.58;21.85;;;;;;;;;;5055184;28;20064;-69
2023/12/02 08:24:32;;;;;;;44.38;20.83;;;;;;;;;;5058850;28;20581;-69
2023/12/02 08:26:58;;;;;;;46.88;21.33;;;;;;;;;;5055203;28;20052;-69
2023/12/02 08:29:24;;;;;;;46.40;20.98;;;;;;;;;;5058186;28;20048;-69
2023/12/02 08:31:50;;;;;;;44.22;20.23;;;;;;;;;;5058605;28;20045;-69
2023/12/02 08:34:16;;;;;;;50.58;21.38;;;;;;;;;;5056759;28;20047;-69
2023/12/02 08:36:43;;;;;;;45.10;19.52;;;;;;;;;;5019717;28;20108;-69
2023/12/02 08:39:09;;;;;;;46.00;22.13;;;;;;;;;;5056794;28;20483;-69
2023/12/02 08:41:36;;;;;;;49.78;21.50;;;;;;;;;;5044911;28;20040;-69
2023/12/02 08:44:02;;;;;;;42.03;20.50;;;;;;;;;;5054883;28;20120;-69
2023/12/02 08:46:28;;;;;;;43.25;20.92;;;;;;;;;;5066074;28;20100;-69
2023/12/02 08:48:54;;;;;;;47.10;20.90;;;;;;;;;;5054594;28;20037;-69
2023/12/02 08:51:21;;;;;;;46.13;21.25;;;;;;;;;;5064434;28;20048;-69
2023/12/02 08:53:49;;;;;;;47.50;21.30;;;;;;;;;;5037709;28;20045;-69
2023/12/02 08:56:15;;;;;;;47.50;21.70;;;;;;;;;;5059169;28;20048;-69
2023/12/02 08:58:41;;;;;;;47.15;20.83;;;;;;;;;;5054618;28;20044;-69
2023/12/02 09:01:07;;;;;;;46.22;21.17;;;;;;;;;;5064921;28;20067;-69
2023/12/02 09:03:33;;;;;;;47.60;20.52;;;;;;;;;;5058375;28;20040;-68
2023/12/02 09:05:59;;;;;;;46.13;21.33;;;;;;;;;;5056150;28;20545;-68
2023/12/02 09:08:25;;;;;;;46.22;21.58;;;;;;;;;;5060276;28;20068;-68
2023/12/02 09:10:50;;;;;;;42.83;19.92;;;;;;;;;;5055070;28;20045;-68
2023/12/02 09:13:35;;;;;;;48.50;22.15;;;;;;;;;;5051910;28;20128;-69
2023/12/02 09:16:01;;;;;;;47.15;20.73;;;;;;;;;;5054443;28;20060;-69
2023/12/02 09:18:29;;;;;;;46.05;21.40;;;;;;;;;;5054769;28;20050;-69
2023/12/02 09:20:55;;;;;;;46.33;22.67;;;;;;;;;;5060614;28;20110;-69
2023/12/02 09:23:22;;;;;;;43.65;21.17;;;;;;;;;;5039422;28;20041;-69
2023/12/02 09:25:49;;;;;;;48.75;21.80;;;;;;;;;;5055958;28;20033;-69
2023/12/02 09:28:16;;;;;;;47.72;22.42;;;;;;;;;;5057054;28;20070;-69
2023/12/02 09:30:54;;;;;;;48.80;22.05;;;;;;;;;;5051675;28;20055;-69
2023/12/02 09:33:20;;;;;;;45.35;21.33;;;;;;;;;;5056996;28;20064;-69
2023/12/02 09:35:46;;;;;;;42.78;20.67;;;;;;;;;;5058230;28;20037;-69
2023/12/02 09:38:14;;;;;;;44.88;21.58;;;;;;;;;;5061537;28;20451;-69
2023/12/02 09:40:57;;;;;;;42.28;18.80;;;;;;;;;;5050982;28;20187;-69
2023/12/02 09:43:27;;;;;;;48.63;21.20;;;;;;;;;;5070953;28;20393;-69
2023/12/02 09:46:02;;;;;;;44.90;21.58;;;;;;;;;;5063988;28;20517;-69
2023/12/02 09:48:31;;;;;;;46.88;21.35;;;;;;;;;;5047003;28;20052;-69
2023/12/02 09:51:08;;;;;;;46.72;21.17;;;;;;;;;;5061560;28;20119;-70
2023/12/02 09:53:50;;;;;;;45.95;21.80;;;;;;;;;;5066068;28;20029;-70
2023/12/02 09:56:20;;;;;;;45.55;20.38;;;;;;;;;;5053266;28;20548;-69
2023/12/02 09:58:46;;;;;;;47.33;22.85;;;;;;;;;;5058005;28;20086;-69
2023/12/02 10:01:18;;;;;;;47.63;20.73;;;;;;;;;;5061738;28;20032;-69
2023/12/02 10:03:44;;;;;;;47.33;21.23;;;;;;;;;;5071605;28;20082;-69
2023/12/02 10:06:13;;;;;;;44.28;20.63;;;;;;;;;;5065549;28;20041;-69
2023/12/02 10:08:42;;;;;;;48.75;20.85;;;;;;;;;;5059892;28;20491;-69
2023/12/02 10:11:14;;;;;;;49.42;21.42;;;;;;;;;;5066813;28;20078;-69
2023/12/02 10:13:45;;;;;;;40.00;19.40;;;;;;;;;;5066040;28;20043;-69
2023/12/02 10:16:15;;;;;;;47.73;21.43;;;;;;;;;;5056842;28;20490;-69
2023/12/02 10:18:47;;;;;;;50.72;22.23;;;;;;;;;;5066085;28;20048;-69
2023/12/02 10:21:14;;;;;;;50.30;21.75;;;;;;;;;;5055886;28;20044;-69
2023/12/02 10:23:51;;;;;;;47.67;21.25;;;;;;;;;;5053052;28;20040;-69
2023/12/02 10:26:17;;;;;;;50.45;21.67;;;;;;;;;;5052342;28;20059;-69
2023/12/02 10:28:50;;;;;;;46.33;21.08;;;;;;;;;;5056615;28;20570;-69
2023/12/02 10:31:23;;;;;;;50.47;21.23;;;;;;;;;;5067383;28;20048;-69
2023/12/02 10:33:57;;;;;;;50.20;22.50;;;;;;;;;;5056143;28;20133;-69
2023/12/02 10:36:26;;;;;;;52.40;22.30;;;;;;;;;;5055357;28;20491;-69
2023/12/02 10:39:07;;;;;;;45.97;21.42;;;;;;;;;;5059069;28;20036;-69
2023/12/02 10:41:53;;;;;;;49.10;22.05;;;;;;;;;;5059136;28;20113;-70
2023/12/02 10:44:21;;;;;;;50.15;22.15;;;;;;;;;;5036359;28;20124;-70
2023/12/02 10:46:48;;;;;;;49.80;22.40;;;;;;;;;;5056540;28;20045;-70
2023/12/02 10:49:14;;;;;;;48.40;21.17;;;;;;;;;;5057254;28;20044;-70
2023/12/02 10:51:41;;;;;;;53.10;22.77;;;;;;;;;;5053174;28;20032;-70
2023/12/02 10:54:08;;;;;;;53.10;22.25;;;;;;;;;;5061066;28;20494;-70
2023/12/02 10:56:37;;;;;;;50.40;22.60;;;;;;;;;;5058286;28;20547;-70
2023/12/02 10:59:04;;;;;;;50.50;22.75;;;;;;;;;;5057564;28;20090;-70
2023/12/02 11:01:39;;;;;;;52.35;22.55;;;;;;;;;;5053209;28;20556;-70
2023/12/02 11:04:11;;;;;;;54.22;23.25;;;;;;;;;;5055822;28;20052;-70
2023/12/02 11:06:40;;;;;;;48.22;21.80;;;;;;;;;;5073376;28;20041;-70
2023/12/02 11:09:10;;;;;;;52.97;22.35;;;;;;;;;;5050351;28;20037;-71
2023/12/02 11:11:46;;;;;;;50.42;22.85;;;;;;;;;;5062451;28;20045;-71
2023/12/02 11:14:17;;;;;;;52.45;22.52;;;;;;;;;;5057597;28;20040;-71
2023/12/02 11:16:50;;;;;;;51.17;21.98;;;;;;;;;;5071426;28;20048;-70
2023/12/02 11:19:24;;;;;;;47.63;21.75;;;;;;;;;;5063040;28;20047;-70
2023/12/02 11:21:56;;;;;;;49.70;22.23;;;;;;;;;;5055273;28;20080;-70
2023/12/02 11:24:44;;;;;;;55.88;23.20;;;;;;;;;;5034081;28;20099;-70
2023/12/02 11:27:13;;;;;;;52.10;22.55;;;;;;;;;;5038962;28;20048;-71
2023/12/02 11:29:55;;;;;;;47.45;22.08;;;;;;;;;;5046468;28;20048;-72
2023/12/02 11:32:35;;;;;;;52.53;22.20;;;;;;;;;;5059236;28;20056;-71
2023/12/02 11:35:24;;;;;;;52.15;23.08;;;;;;;;;;5037740;28;20048;-71
2023/12/02 11:37:57;;;;;;;51.92;22.15;;;;;;;;;;5029463;28;20501;-71
2023/12/02 11:40:27;;;;;;;47.60;22.45;;;;;;;;;;5023996;28;20090;-71
2023/12/02 11:42:53;;;;;;;51.30;22.35;;;;;;;;;;5032135;28;20041;-71
2023/12/02 11:45:26;;;;;;;50.42;21.25;;;;;;;;;;5056636;28;20064;-71
2023/12/02 11:48:00;;;;;;;52.13;21.90;;;;;;;;;;5053401;28;20045;-71
2023/12/02 11:50:41;;;;;;;47.50;22.33;;;;;;;;;;5060948;28;20091;-71
2023/12/02 11:53:07;;;;;;;;;;;;;;;;;;5068377;28;20062;-71
2023/12/02 11:56:01;;;;;;;52.60;23.98;;;;;;;;;;5037708;28;19924;-71
2023/12/02 11:58:28;;;;;;;51.60;22.08;;;;;;;;;;5053168;28;20125;-71
2023/12/02 12:01:13;;;;;;;51.75;22.63;;;;;;;;;;5045436;28;20064;-71
2023/12/02 12:03:46;;;;;;;48.45;22.55;;;;;;;;;;5064538;28;20045;-71
2023/12/02 12:06:31;;;;;;;49.90;21.98;;;;;;;;;;5045397;28;20044;-70
2023/12/02 12:09:10;;;;;;;50.05;20.83;;;;;;;;;;5061586;28;20060;-70
2023/12/02 12:11:37;;;;;;;47.33;20.95;;;;;;;;;;5061553;28;20116;-70
2023/12/02 12:14:05;;;;;;;46.88;20.02;;;;;;;;;;5064295;28;20064;-70
2023/12/02 12:16:31;;;;;;;51.63;22.08;;;;;;;;;;5049827;28;20090;-70
2023/12/02 12:18:58;;;;;;;47.97;20.92;;;;;;;;;;5096704;22;20048;-70
2023/12/02 12:21:24;;;;;;;44.88;21.27;;;;;;;;;;5093564;28;20093;-69
2023/12/02 12:23:50;;;;;;;51.20;22.63;;;;;;;;;;5092478;28;20044;-69
2023/12/02 12:26:16;;;;;;;53.78;22.05;;;;;;;;;;5091027;28;20048;-69
2023/12/02 12:28:42;;;;;;;51.50;21.83;;;;;;;;;;5099616;28;20068;-70
2023/12/02 12:31:09;;;;;;;49.22;21.63;;;;;;;;;;5105057;28;20032;-69
2023/12/02 12:33:38;;;;;;;51.83;22.38;;;;;;;;;;5100159;28;20051;-69
2023/12/02 12:36:05;;;;;;;52.88;22.65;;;;;;;;;;5085137;28;20085;-69
2023/12/02 12:38:31;;;;;;;47.10;20.65;;;;;;;;;;5096060;28;20028;-69
2023/12/02 12:40:57;;;;;;;48.42;21.08;;;;;;;;;;5094767;28;20036;-70
2023/12/02 12:43:23;;;;;;;49.55;21.73;;;;;;;;;;5095116;28;20040;-69
2023/12/02 12:45:53;;;;;;;49.10;21.33;;;;;;;;;;5098468;28;20077;-70
2023/12/02 12:48:25;;;;;;;45.10;20.63;;;;;;;;;;5099114;28;20519;-70
2023/12/02 12:50:51;;;;;;;48.97;20.67;;;;;;;;;;5106004;28;20048;-69
2023/12/02 12:53:19;;;;;;;49.95;21.35;;;;;;;;;;5100214;28;20066;-69
2023/12/02 12:55:45;;;;;;;49.55;21.50;;;;;;;;;;5105185;28;20040;-69
2023/12/02 12:58:17;;;;;;;51.60;21.27;;;;;;;;;;5109825;28;20078;-69
2023/12/02 13:00:47;;;;;;;49.05;21.30;;;;;;;;;;5111268;28;20046;-69
2023/12/02 13:03:32;;;;;;;48.83;21.70;;;;;;;;;;5099745;28;20048;-70
2023/12/02 13:06:07;;;;;;;49.00;21.42;;;;;;;;;;5092439;28;20111;-69
2023/12/02 13:08:34;;;;;;;47.70;20.83;;;;;;;;;;5095577;28;20085;-69
2023/12/02 13:11:04;;;;;;;46.85;20.70;;;;;;;;;;5103369;28;20043;-69
2023/12/02 13:13:31;;;;;;;48.50;20.73;;;;;;;;;;5107551;28;20051;-69
2023/12/02 13:15:59;;;;;;;48.40;20.83;;;;;;;;;;5095240;28;20036;-69
2023/12/02 13:18:28;;;;;;;51.78;21.90;;;;;;;;;;5097175;28;20074;-69
2023/12/02 13:20:54;;;;;;;50.92;20.60;;;;;;;;;;5100137;28;20498;-69
2023/12/02 13:23:23;;;;;;;53.10;21.52;;;;;;;;;;5103346;28;20051;-69
2023/12/02 13:25:49;;;;;;;49.28;21.48;;;;;;;;;;5095087;28;20517;-69
2023/12/02 13:28:27;;;;;;;49.85;20.83;;;;;;;;;;5103868;28;20027;-70
2023/12/02 13:30:54;;;;;;;48.00;21.50;;;;;;;;;;5098302;28;20036;-70
2023/12/02 13:33:41;;;;;;;49.72;21.70;;;;;;;;;;5104256;28;20047;-70
2023/12/02 13:36:12;;;;;;;50.92;21.08;;;;;;;;;;5106922;28;20035;-70
2023/12/02 13:38:42;;;;;;;52.92;22.75;;;;;;;;;;5100591;28;20076;-70
2023/12/02 13:41:27;;;;;;;47.97;20.40;;;;;;;;;;5102978;28;20401;-70
2023/12/02 13:43:53;;;;;;;47.05;21.10;;;;;;;;;;5098477;28;20050;-70
2023/12/02 13:46:27;;;;;;;49.53;20.23;;;;;;;;;;5104692;28;20043;-69
2023/12/02 13:49:00;;;;;;;47.15;20.52;;;;;;;;;;5107338;28;20485;-69
2023/12/02 13:51:30;;;;;;;51.78;20.50;;;;;;;;;;5104402;28;20067;-69
2023/12/02 13:54:03;;;;;;;50.60;20.60;;;;;;;;;;5095260;28;20040;-70
2023/12/02 13:56:35;;;;;;;55.08;21.48;;;;;;;;;;5101825;28;20039;-70
2023/12/02 13:59:08;;;;;;;55.28;20.98;;;;;;;;;;5101881;28;20050;-69
2023/12/02 14:01:36;;;;;;;50.28;21.27;;;;;;;;;;5090774;28;20101;-69
2023/12/02 14:04:02;;;;;;;47.88;20.85;;;;;;;;;;5110851;28;20097;-69
2023/12/02 14:06:42;;;;;;;47.08;20.75;;;;;;;;;;5098089;28;20052;-69
2023/12/02 14:09:09;;;;;;;50.63;20.63;;;;;;;;;;5089959;28;20089;-69
2023/12/02 14:11:41;;;;;;;51.28;20.98;;;;;;;;;;5107084;28;20101;-70
2023/12/02 14:14:26;;;;;;;44.67;19.02;;;;;;;;;;5104350;28;20051;-70
2023/12/02 14:17:04;;;;;;;50.00;21.35;;;;;;;;;;5090281;28;20072;-70
2023/12/02 14:19:33;;;;;;;47.03;20.52;;;;;;;;;;5105214;28;20390;-70
2023/12/02 14:22:09;;;;;;;47.97;20.60;;;;;;;;;;5102568;28;20047;-70
2023/12/02 14:24:40;;;;;;;47.53;20.73;;;;;;;;;;5110651;28;20493;-70